Time;durP1;ratioP1;P1;durP2;ratioP2;P2;SDS_P1;SDS_P2;PMS_P1;PMS_P2;Temp;Humidity;BMP_temperature;BMP_pressure;BME280_temperature;BME280_humidity;BME280_pressure;Samples;Min_cycle;Max_cycle;Signal;HPM_P1;HPM_P2
2023/09/11 00:02:01;;;;;;;6.07;5.18;;;;;;;;;;5097143;28;20218;-68
2023/09/11 00:04:29;;;;;;;6.38;4.97;;;;;;;;;;5097222;28;20254;-70
2023/09/11 00:06:57;;;;;;;7.65;4.78;;;;;;;;;;5097428;28;20215;-70
2023/09/11 00:09:25;;;;;;;5.55;4.55;;;;;;;;;;5097424;28;20205;-70
2023/09/11 00:11:52;;;;;;;4.88;4.43;;;;;;;;;;5097311;28;20226;-70
2023/09/11 00:14:20;;;;;;;5.13;4.30;;;;;;;;;;5089826;28;20193;-70
2023/09/11 00:16:50;;;;;;;5.85;4.43;;;;;;;;;;5100878;28;20735;-70
2023/09/11 00:19:18;;;;;;;5.82;4.40;;;;;;;;;;5087522;28;20668;-70
2023/09/11 00:21:46;;;;;;;5.90;4.10;;;;;;;;;;5100569;28;20725;-70
2023/09/11 00:24:14;;;;;;;4.47;3.83;;;;;;;;;;5100557;28;20229;-70
2023/09/11 00:26:42;;;;;;;6.63;4.40;;;;;;;;;;5100592;28;20207;-70
2023/09/11 00:29:10;;;;;;;4.20;3.83;;;;;;;;;;5100347;28;20208;-69
2023/09/11 00:31:38;;;;;;;3.78;3.38;;;;;;;;;;5100643;28;20238;-68
2023/09/11 00:34:08;;;;;;;4.72;3.85;;;;;;;;;;5100788;28;20204;-69
2023/09/11 00:36:36;;;;;;;4.13;3.80;;;;;;;;;;5100358;28;20208;-69
2023/09/11 00:39:04;;;;;;;4.72;4.22;;;;;;;;;;5100552;28;20212;-68
2023/09/11 00:41:32;;;;;;;4.55;4.05;;;;;;;;;;5098047;28;20217;-68
2023/09/11 00:44:00;;;;;;;7.50;3.90;;;;;;;;;;5091373;28;20226;-69
2023/09/11 00:46:28;;;;;;;4.68;4.28;;;;;;;;;;5100213;28;20261;-70
2023/09/11 00:48:56;;;;;;;4.88;4.22;;;;;;;;;;5100527;28;20203;-70
2023/09/11 00:51:26;;;;;;;4.78;3.97;;;;;;;;;;5099988;28;20226;-69
2023/09/11 00:53:54;;;;;;;4.55;4.15;;;;;;;;;;5100330;28;20210;-70
2023/09/11 00:56:22;;;;;;;5.13;4.68;;;;;;;;;;5086496;28;20237;-69
2023/09/11 00:58:51;;;;;;;4.20;3.85;;;;;;;;;;5099663;28;20240;-69
2023/09/11 01:01:20;;;;;;;4.70;3.95;;;;;;;;;;5099922;28;20271;-69
2023/09/11 01:03:48;;;;;;;5.10;4.20;;;;;;;;;;5096520;28;20198;-67
2023/09/11 01:06:16;;;;;;;6.38;4.40;;;;;;;;;;5091356;28;20247;-69
2023/09/11 01:08:45;;;;;;;4.43;4.03;;;;;;;;;;5099382;28;20683;-69
2023/09/11 01:11:14;;;;;;;5.70;4.10;;;;;;;;;;5099645;28;20229;-71
2023/09/11 01:13:42;;;;;;;4.35;3.95;;;;;;;;;;5099264;28;20208;-71
2023/09/11 01:16:14;;;;;;;4.05;3.50;;;;;;;;;;5097854;28;20664;-72
2023/09/11 01:18:46;;;;;;;3.85;3.55;;;;;;;;;;5099360;28;20273;-70
2023/09/11 01:21:38;;;;;;;4.43;3.85;;;;;;;;;;5099475;28;20224;-68
2023/09/11 01:24:36;;;;;;;4.07;3.63;;;;;;;;;;5084299;28;20719;-69
2023/09/11 01:27:13;;;;;;;5.03;3.60;;;;;;;;;;5036818;28;20207;-69
2023/09/11 01:29:43;;;;;;;3.97;3.67;;;;;;;;;;5088710;28;20211;-69
2023/09/11 01:32:12;;;;;;;4.47;3.57;;;;;;;;;;5093095;28;20263;-69
2023/09/11 01:34:40;;;;;;;3.90;3.50;;;;;;;;;;5097202;28;20208;-67
2023/09/11 01:37:08;;;;;;;3.65;3.35;;;;;;;;;;5098918;28;20213;-68
2023/09/11 01:39:36;;;;;;;4.45;3.60;;;;;;;;;;5098970;28;20207;-68
2023/09/11 01:42:07;;;;;;;5.00;3.85;;;;;;;;;;5098960;28;20227;-68
2023/09/11 01:44:38;;;;;;;3.95;3.65;;;;;;;;;;5098528;28;20235;-66
2023/09/11 01:47:08;;;;;;;6.25;3.72;;;;;;;;;;5099136;28;20210;-67
2023/09/11 01:49:37;;;;;;;14.15;4.55;;;;;;;;;;5099279;28;20209;-69
2023/09/11 01:52:07;;;;;;;7.63;4.05;;;;;;;;;;5099250;28;20216;-68
2023/09/11 01:54:36;;;;;;;5.30;3.60;;;;;;;;;;5098855;28;20205;-67
2023/09/11 01:57:06;;;;;;;4.53;3.85;;;;;;;;;;5098865;28;20694;-68
2023/09/11 01:59:34;;;;;;;5.57;3.60;;;;;;;;;;5098535;28;20604;-67
2023/09/11 02:02:06;;;;;;;6.00;4.10;;;;;;;;;;5098938;28;20291;-67
2023/09/11 02:04:35;;;;;;;4.10;3.70;;;;;;;;;;5093324;28;20234;-70
2023/09/11 02:07:03;;;;;;;4.30;3.90;;;;;;;;;;5092804;28;20206;-68
2023/09/11 02:09:34;;;;;;;4.53;4.10;;;;;;;;;;5098740;28;20212;-68
2023/09/11 02:12:02;;;;;;;4.70;4.23;;;;;;;;;;5098563;28;20541;-68
2023/09/11 02:14:30;;;;;;;4.50;4.10;;;;;;;;;;5098676;28;20202;-66
2023/09/11 02:17:02;;;;;;;4.10;3.70;;;;;;;;;;5098746;28;20201;-68
2023/09/11 02:19:31;;;;;;;4.20;3.80;;;;;;;;;;5098811;28;20237;-69
2023/09/11 02:22:00;;;;;;;4.57;3.23;;;;;;;;;;5098627;28;20259;-67
2023/09/11 02:24:28;;;;;;;4.20;3.80;;;;;;;;;;5098739;28;20205;-67
2023/09/11 02:26:56;;;;;;;3.93;3.47;;;;;;;;;;5098284;28;20573;-67
2023/09/11 02:29:24;;;;;;;6.33;3.43;;;;;;;;;;5098337;28;20294;-67
2023/09/11 02:31:53;;;;;;;5.60;4.17;;;;;;;;;;5098171;28;20563;-68
2023/09/11 02:34:21;;;;;;;4.10;3.80;;;;;;;;;;5098307;28;20215;-67
2023/09/11 02:36:49;;;;;;;5.53;3.53;;;;;;;;;;5097851;28;20203;-67
2023/09/11 02:39:18;;;;;;;5.87;4.03;;;;;;;;;;5098334;28;20215;-67
2023/09/11 02:41:46;;;;;;;4.63;3.83;;;;;;;;;;5098228;28;20221;-67
2023/09/11 02:44:14;;;;;;;6.17;4.33;;;;;;;;;;5098071;28;20211;-67
2023/09/11 02:46:43;;;;;;;4.83;3.77;;;;;;;;;;5098031;28;20232;-67
2023/09/11 02:49:11;;;;;;;4.00;3.70;;;;;;;;;;5098186;28;20214;-67
2023/09/11 02:51:39;;;;;;;4.23;3.83;;;;;;;;;;5097891;28;20221;-69
2023/09/11 02:54:07;;;;;;;5.60;3.80;;;;;;;;;;5097981;28;20216;-69
2023/09/11 02:56:38;;;;;;;5.00;4.60;;;;;;;;;;5087249;28;20252;-68
2023/09/11 02:59:06;;;;;;;5.43;3.93;;;;;;;;;;5097579;28;20241;-68
2023/09/11 03:01:35;;;;;;;3.90;3.60;;;;;;;;;;5097689;28;20284;-67
2023/09/11 03:04:03;;;;;;;4.93;4.23;;;;;;;;;;5097779;28;20206;-66
2023/09/11 03:06:31;;;;;;;5.10;3.50;;;;;;;;;;5097938;28;20224;-67
2023/09/11 03:08:59;;;;;;;4.47;4.07;;;;;;;;;;5097739;28;20218;-67
2023/09/11 03:11:27;;;;;;;3.97;3.60;;;;;;;;;;5097825;28;20276;-68
2023/09/11 03:13:56;;;;;;;5.13;4.10;;;;;;;;;;5097515;28;20207;-68
2023/09/11 03:16:24;;;;;;;4.70;3.87;;;;;;;;;;5098013;28;20203;-67
2023/09/11 03:18:53;;;;;;;4.13;3.80;;;;;;;;;;5097913;28;20257;-67
2023/09/11 03:21:21;;;;;;;4.47;3.90;;;;;;;;;;5097916;28;20230;-67
2023/09/11 03:23:49;;;;;;;5.47;3.90;;;;;;;;;;5097487;28;20224;-67
2023/09/11 03:26:18;;;;;;;7.33;4.07;;;;;;;;;;5097804;28;20236;-68
2023/09/11 03:28:48;;;;;;;5.40;4.90;;;;;;;;;;5097576;28;20274;-68
2023/09/11 03:31:17;;;;;;;3.87;3.57;;;;;;;;;;5097537;28;20639;-68
2023/09/11 03:33:45;;;;;;;4.30;3.80;;;;;;;;;;5097484;28;20217;-68
2023/09/11 03:36:14;;;;;;;4.30;3.87;;;;;;;;;;5097771;28;20235;-68
2023/09/11 03:38:42;;;;;;;4.57;4.17;;;;;;;;;;5097358;28;20670;-69
2023/09/11 03:41:11;;;;;;;3.90;3.60;;;;;;;;;;5097641;28;20294;-68
2023/09/11 03:43:39;;;;;;;3.93;3.50;;;;;;;;;;5097385;28;20201;-68
2023/09/11 03:46:07;;;;;;;4.43;4.03;;;;;;;;;;5097707;28;20256;-68
2023/09/11 03:48:36;;;;;;;4.37;3.97;;;;;;;;;;5099784;28;20695;-68
2023/09/11 03:51:05;;;;;;;6.53;4.30;;;;;;;;;;5101357;28;20606;-68
2023/09/11 03:53:33;;;;;;;5.03;4.20;;;;;;;;;;5101505;28;20213;-68
2023/09/11 03:56:02;;;;;;;8.10;4.20;;;;;;;;;;5101156;28;20572;-68
2023/09/11 03:58:30;;;;;;;5.80;4.53;;;;;;;;;;5100940;28;20233;-69
2023/09/11 04:00:58;;;;;;;6.83;4.73;;;;;;;;;;5101260;28;20251;-69
2023/09/11 04:03:26;;;;;;;7.00;4.43;;;;;;;;;;5101400;28;20243;-69
2023/09/11 04:05:55;;;;;;;4.60;4.20;;;;;;;;;;5101212;28;20229;-69
2023/09/11 04:08:23;;;;;;;5.10;4.40;;;;;;;;;;5089225;28;20202;-69
2023/09/11 04:10:51;;;;;;;6.57;4.03;;;;;;;;;;5101200;28;20313;-69
2023/09/11 04:13:19;;;;;;;4.90;4.23;;;;;;;;;;5100565;28;20210;-69
2023/09/11 04:15:50;;;;;;;4.60;4.20;;;;;;;;;;5101120;28;20214;-69
2023/09/11 04:18:18;;;;;;;6.30;3.93;;;;;;;;;;5101017;28;20207;-69
2023/09/11 04:20:48;;;;;;;5.27;4.53;;;;;;;;;;5100989;28;20230;-69
2023/09/11 04:23:18;;;;;;;6.60;4.37;;;;;;;;;;5100532;28;20207;-68
2023/09/11 04:25:46;;;;;;;6.33;4.50;;;;;;;;;;5100843;28;20231;-68
2023/09/11 04:28:16;;;;;;;4.60;4.07;;;;;;;;;;5100545;28;20204;-68
2023/09/11 04:30:44;;;;;;;6.57;4.20;;;;;;;;;;5101241;28;20251;-68
2023/09/11 04:33:12;;;;;;;5.07;4.47;;;;;;;;;;5100804;28;20215;-68
2023/09/11 04:35:40;;;;;;;6.23;4.50;;;;;;;;;;5100752;28;20217;-70
2023/09/11 04:38:08;;;;;;;6.87;4.77;;;;;;;;;;5100429;28;20205;-69
2023/09/11 04:40:38;;;;;;;6.93;4.70;;;;;;;;;;5100538;28;20252;-70
2023/09/11 04:43:06;;;;;;;4.97;3.87;;;;;;;;;;5099869;28;20244;-70
2023/09/11 04:45:34;;;;;;;6.23;4.53;;;;;;;;;;5100449;28;20210;-68
2023/09/11 04:48:05;;;;;;;6.37;4.40;;;;;;;;;;5100243;28;20201;-69
2023/09/11 04:50:33;;;;;;;4.50;4.10;;;;;;;;;;5100215;28;20229;-70
2023/09/11 04:53:02;;;;;;;5.27;4.10;;;;;;;;;;5100105;28;20222;-69
2023/09/11 04:55:31;;;;;;;4.63;4.00;;;;;;;;;;5100477;28;20209;-69
2023/09/11 04:58:00;;;;;;;5.67;4.47;;;;;;;;;;5099417;28;20231;-69
2023/09/11 05:00:29;;;;;;;5.67;4.20;;;;;;;;;;5099978;28;20227;-70
2023/09/11 05:02:57;;;;;;;4.80;4.40;;;;;;;;;;5100128;28;20214;-69
2023/09/11 05:05:26;;;;;;;5.30;4.40;;;;;;;;;;5099891;28;20204;-69
2023/09/11 05:07:54;;;;;;;4.80;4.30;;;;;;;;;;5099812;28;20226;-69
2023/09/11 05:10:22;;;;;;;9.87;5.27;;;;;;;;;;5099850;28;20230;-69
2023/09/11 05:12:50;;;;;;;7.80;4.77;;;;;;;;;;5093110;28;20202;-71
2023/09/11 05:15:19;;;;;;;5.27;4.40;;;;;;;;;;5095961;28;20256;-70
2023/09/11 05:17:47;;;;;;;7.60;4.50;;;;;;;;;;5099509;28;20202;-70
2023/09/11 05:20:15;;;;;;;6.03;4.47;;;;;;;;;;5099433;28;20265;-69
2023/09/11 05:22:43;;;;;;;8.90;4.63;;;;;;;;;;5099741;28;20210;-70
2023/09/11 05:25:11;;;;;;;6.40;4.30;;;;;;;;;;5099498;28;20202;-70
2023/09/11 05:27:39;;;;;;;6.10;4.73;;;;;;;;;;5087808;28;20678;-69
2023/09/11 05:30:08;;;;;;;6.97;4.50;;;;;;;;;;5102212;28;20648;-69
2023/09/11 05:32:37;;;;;;;9.43;4.60;;;;;;;;;;5102277;28;20203;-71
2023/09/11 05:35:06;;;;;;;5.43;4.43;;;;;;;;;;5099108;28;20616;-72
2023/09/11 05:37:35;;;;;;;7.80;4.03;;;;;;;;;;5097311;28;20203;-72
2023/09/11 05:40:06;;;;;;;9.13;4.50;;;;;;;;;;5099123;28;20225;-71
2023/09/11 05:42:35;;;;;;;4.93;4.23;;;;;;;;;;5098720;28;20229;-71
2023/09/11 05:45:03;;;;;;;6.97;4.83;;;;;;;;;;5097467;28;20205;-72
2023/09/11 05:47:31;;;;;;;5.73;4.23;;;;;;;;;;5103006;28;20236;-72
2023/09/11 05:50:01;;;;;;;6.13;4.67;;;;;;;;;;5098788;28;20227;-72
2023/09/11 05:52:29;;;;;;;6.63;3.97;;;;;;;;;;5098668;28;20210;-72
2023/09/11 05:54:57;;;;;;;7.43;4.60;;;;;;;;;;5098567;28;20663;-72
2023/09/11 05:57:25;;;;;;;5.07;4.30;;;;;;;;;;5098140;28;20203;-71
2023/09/11 05:59:53;;;;;;;5.60;3.83;;;;;;;;;;5095601;28;20198;-72
2023/09/11 06:02:21;;;;;;;5.70;4.30;;;;;;;;;;5097582;28;20578;-73
2023/09/11 06:04:49;;;;;;;6.97;4.40;;;;;;;;;;5087868;28;20668;-72
2023/09/11 06:07:20;;;;;;;6.80;4.60;;;;;;;;;;5098597;28;20255;-71
2023/09/11 06:09:49;;;;;;;6.63;4.23;;;;;;;;;;5097819;28;20212;-72
2023/09/11 06:12:17;;;;;;;6.90;4.30;;;;;;;;;;5098032;28;20208;-71
2023/09/11 06:14:45;;;;;;;4.53;4.03;;;;;;;;;;5098851;28;20219;-71
2023/09/11 06:17:14;;;;;;;5.33;4.37;;;;;;;;;;5098410;28;20297;-72
2023/09/11 06:19:42;;;;;;;5.40;4.07;;;;;;;;;;5098730;28;20208;-73
2023/09/11 06:22:10;;;;;;;5.53;4.37;;;;;;;;;;5107353;28;20642;-73
2023/09/11 06:24:39;;;;;;;4.70;4.03;;;;;;;;;;5098420;28;20216;-73
2023/09/11 06:27:08;;;;;;;5.23;4.33;;;;;;;;;;5098108;28;20228;-72
2023/09/11 06:29:36;;;;;;;6.57;4.53;;;;;;;;;;5098146;28;20208;-71
2023/09/11 06:32:05;;;;;;;6.43;4.27;;;;;;;;;;5098179;28;20300;-71
2023/09/11 06:34:33;;;;;;;6.10;4.43;;;;;;;;;;5098061;28;20211;-72
2023/09/11 06:37:01;;;;;;;7.07;4.13;;;;;;;;;;5098015;28;20211;-72
2023/09/11 06:39:29;;;;;;;5.00;4.30;;;;;;;;;;5099944;28;20232;-72
2023/09/11 06:41:59;;;;;;;5.43;4.10;;;;;;;;;;5097724;28;20236;-72
2023/09/11 06:44:27;;;;;;;5.43;4.30;;;;;;;;;;5098113;28;20207;-73
2023/09/11 06:46:55;;;;;;;6.70;4.13;;;;;;;;;;5097591;28;20737;-72
2023/09/11 06:49:24;;;;;;;7.17;4.33;;;;;;;;;;5097796;28;20209;-73
2023/09/11 06:51:52;;;;;;;7.67;4.30;;;;;;;;;;5094302;28;20218;-72
2023/09/11 06:54:19;;;;;;;6.07;4.43;;;;;;;;;;5090465;28;20578;-73
2023/09/11 06:56:48;;;;;;;6.77;4.27;;;;;;;;;;5106117;28;20224;-72
2023/09/11 06:59:17;;;;;;;4.93;4.17;;;;;;;;;;5097454;28;20264;-71
2023/09/11 07:01:45;;;;;;;4.67;4.17;;;;;;;;;;5084716;28;20236;-72
2023/09/11 07:04:14;;;;;;;5.37;4.17;;;;;;;;;;5097947;28;20216;-72
2023/09/11 07:06:42;;;;;;;4.90;4.17;;;;;;;;;;5097726;28;20220;-72
2023/09/11 07:09:10;;;;;;;5.17;4.63;;;;;;;;;;5097221;28;20221;-72
2023/09/11 07:11:38;;;;;;;4.43;4.03;;;;;;;;;;5097647;28;20656;-71
2023/09/11 07:14:08;;;;;;;7.37;4.77;;;;;;;;;;5101722;28;20258;-72
2023/09/11 07:16:38;;;;;;;4.73;4.30;;;;;;;;;;5097829;28;20679;-71
2023/09/11 07:19:06;;;;;;;5.77;4.10;;;;;;;;;;5097298;28;20210;-71
2023/09/11 07:21:34;;;;;;;4.43;3.60;;;;;;;;;;5098288;28;20288;-71
2023/09/11 07:24:02;;;;;;;9.00;4.43;;;;;;;;;;5101792;28;20213;-71
2023/09/11 07:26:30;;;;;;;5.80;4.17;;;;;;;;;;5101967;28;20206;-71
2023/09/11 07:29:01;;;;;;;6.67;4.20;;;;;;;;;;5103105;28;20283;-71
2023/09/11 07:31:30;;;;;;;4.17;3.77;;;;;;;;;;5110607;28;20228;-71
2023/09/11 07:34:00;;;;;;;4.87;4.40;;;;;;;;;;5101738;28;20291;-70
2023/09/11 07:36:29;;;;;;;6.17;4.47;;;;;;;;;;5101803;28;20206;-71
2023/09/11 07:38:57;;;;;;;5.90;3.83;;;;;;;;;;5101489;28;20204;-71
2023/09/11 07:41:25;;;;;;;5.50;4.30;;;;;;;;;;5101356;28;20232;-71
2023/09/11 07:43:54;;;;;;;4.40;3.93;;;;;;;;;;5101044;28;20255;-70
2023/09/11 07:46:24;;;;;;;6.27;4.07;;;;;;;;;;5106595;28;20614;-70
2023/09/11 07:48:53;;;;;;;4.30;3.90;;;;;;;;;;5101370;28;20282;-70
2023/09/11 07:51:28;;;;;;;5.10;4.37;;;;;;;;;;5099347;28;20230;-71
2023/09/11 07:53:56;;;;;;;4.20;3.87;;;;;;;;;;5088062;28;20213;-71
2023/09/11 07:56:25;;;;;;;5.97;4.23;;;;;;;;;;5101269;28;20242;-71
2023/09/11 07:58:54;;;;;;;4.00;3.60;;;;;;;;;;5100574;28;20246;-70
2023/09/11 08:01:22;;;;;;;5.03;3.87;;;;;;;;;;5101163;28;20224;-74
2023/09/11 08:03:50;;;;;;;5.27;4.20;;;;;;;;;;5101801;28;20209;-72
2023/09/11 08:06:20;;;;;;;5.80;4.10;;;;;;;;;;5100847;28;20580;-73
2023/09/11 08:08:49;;;;;;;6.03;4.30;;;;;;;;;;5098792;28;20255;-71
2023/09/11 08:11:18;;;;;;;4.63;3.73;;;;;;;;;;5097281;28;20224;-71
2023/09/11 08:13:49;;;;;;;4.23;3.83;;;;;;;;;;5100565;28;20648;-71
2023/09/11 08:16:18;;;;;;;7.65;3.80;;;;;;;;;;5100824;28;20202;-73
2023/09/11 08:18:46;;;;;;;5.53;3.90;;;;;;;;;;5100659;28;20201;-71
2023/09/11 08:21:15;;;;;;;6.68;3.80;;;;;;;;;;5112221;28;20244;-71
2023/09/11 08:23:43;;;;;;;4.77;4.23;;;;;;;;;;5100905;28;20212;-74
2023/09/11 08:26:13;;;;;;;4.25;3.53;;;;;;;;;;5100571;28;20206;-73
2023/09/11 08:28:41;;;;;;;4.88;3.85;;;;;;;;;;5100619;28;20228;-73
2023/09/11 08:31:10;;;;;;;4.45;3.72;;;;;;;;;;5100292;28;20233;-73
2023/09/11 08:33:38;;;;;;;4.53;3.53;;;;;;;;;;5099907;28;20222;-73
2023/09/11 08:36:21;;;;;;;3.80;3.50;;;;;;;;;;5100295;28;20822;-73
2023/09/11 08:38:49;;;;;;;6.13;4.30;;;;;;;;;;5104868;28;20730;-73
2023/09/11 08:41:20;;;;;;;4.15;3.75;;;;;;;;;;5100068;28;20220;-73
2023/09/11 08:43:48;;;;;;;11.43;4.97;;;;;;;;;;5100171;28;20216;-73
2023/09/11 08:46:16;;;;;;;4.50;3.60;;;;;;;;;;5100434;28;20218;-73
2023/09/11 08:48:45;;;;;;;5.28;3.67;;;;;;;;;;5100354;28;20265;-73
2023/09/11 08:51:17;;;;;;;4.07;3.67;;;;;;;;;;5100267;28;20225;-73
2023/09/11 08:53:46;;;;;;;4.72;3.33;;;;;;;;;;5099146;28;20202;-73
2023/09/11 08:56:15;;;;;;;4.03;3.70;;;;;;;;;;5090290;28;20210;-73
2023/09/11 08:58:45;;;;;;;4.50;3.33;;;;;;;;;;5091328;28;20266;-74
2023/09/11 09:01:13;;;;;;;3.95;3.60;;;;;;;;;;5099988;28;20252;-73
2023/09/11 09:03:42;;;;;;;3.95;3.63;;;;;;;;;;5099986;28;20273;-73
2023/09/11 09:06:12;;;;;;;4.28;3.67;;;;;;;;;;5099784;28;20261;-72
2023/09/11 09:08:41;;;;;;;4.78;3.50;;;;;;;;;;5099070;28;20253;-73
2023/09/11 09:11:10;;;;;;;4.07;3.72;;;;;;;;;;5103225;28;20257;-73
2023/09/11 09:13:39;;;;;;;5.93;3.55;;;;;;;;;;5105016;28;20204;-73
2023/09/11 09:16:09;;;;;;;4.93;3.67;;;;;;;;;;5099847;28;20216;-73
2023/09/11 09:18:37;;;;;;;3.85;3.47;;;;;;;;;;5099678;28;20222;-73
2023/09/11 09:21:07;;;;;;;4.13;3.72;;;;;;;;;;5099664;28;20241;-72
2023/09/11 09:23:35;;;;;;;5.95;3.80;;;;;;;;;;5099435;28;20233;-73
2023/09/11 09:26:05;;;;;;;4.57;3.70;;;;;;;;;;5099692;28;20263;-73
2023/09/11 09:28:33;;;;;;;4.05;3.58;;;;;;;;;;5102725;28;20225;-73
2023/09/11 09:31:05;;;;;;;3.25;2.95;;;;;;;;;;5090120;28;20249;-73
2023/09/11 09:33:35;;;;;;;5.03;3.35;;;;;;;;;;5098309;28;20255;-71
2023/09/11 09:36:04;;;;;;;4.25;3.80;;;;;;;;;;5099216;28;20205;-73
2023/09/11 09:38:32;;;;;;;6.78;3.42;;;;;;;;;;5099208;28;20240;-73
2023/09/11 09:41:09;;;;;;;4.03;3.67;;;;;;;;;;5098792;28;20225;-72
2023/09/11 09:43:37;;;;;;;4.10;3.63;;;;;;;;;;5098789;28;20205;-72
2023/09/11 09:46:18;;;;;;;6.45;4.25;;;;;;;;;;5108812;28;20243;-73
2023/09/11 09:48:47;;;;;;;4.10;3.80;;;;;;;;;;5099172;28;20221;-73
2023/09/11 09:51:16;;;;;;;3.50;3.20;;;;;;;;;;5098890;28;20260;-73
2023/09/11 09:53:46;;;;;;;6.68;3.33;;;;;;;;;;5089919;28;20201;-72
2023/09/11 09:56:15;;;;;;;3.85;3.45;;;;;;;;;;5098565;28;20209;-72
2023/09/11 09:58:44;;;;;;;4.32;3.30;;;;;;;;;;5098105;28;20233;-73
2023/09/11 10:01:14;;;;;;;3.97;3.58;;;;;;;;;;5098786;28;20312;-73
2023/09/11 10:03:42;;;;;;;4.22;3.83;;;;;;;;;;5101958;28;20205;-72
2023/09/11 10:06:15;;;;;;;4.45;3.83;;;;;;;;;;5095432;28;20719;-74
2023/09/11 10:08:46;;;;;;;6.72;4.00;;;;;;;;;;5098489;28;20283;-72
2023/09/11 10:11:28;;;;;;;7.03;3.35;;;;;;;;;;5098463;28;20225;-72
2023/09/11 10:13:57;;;;;;;3.83;3.28;;;;;;;;;;5098185;28;20213;-73
2023/09/11 10:16:26;;;;;;;8.45;4.45;;;;;;;;;;5098484;28;20210;-73
2023/09/11 10:18:55;;;;;;;10.52;4.90;;;;;;;;;;5093707;28;20252;-73
2023/09/11 10:21:24;;;;;;;9.25;4.93;;;;;;;;;;5089625;28;20216;-73
2023/09/11 10:23:52;;;;;;;5.35;4.22;;;;;;;;;;5098119;28;20258;-73
2023/09/11 10:26:23;;;;;;;8.70;4.40;;;;;;;;;;5098500;28;20205;-72
2023/09/11 10:28:53;;;;;;;4.97;4.13;;;;;;;;;;5098051;28;20254;-73
2023/09/11 10:31:21;;;;;;;7.45;3.97;;;;;;;;;;5098204;28;20286;-74
2023/09/11 10:33:51;;;;;;;6.05;3.72;;;;;;;;;;5098441;28;20237;-72
2023/09/11 10:36:22;;;;;;;4.00;3.60;;;;;;;;;;5098556;28;20270;-67
2023/09/11 10:38:53;;;;;;;6.90;3.28;;;;;;;;;;5098013;28;20711;-68
2023/09/11 10:41:21;;;;;;;4.93;3.17;;;;;;;;;;5098292;28;20236;-67
2023/09/11 10:43:50;;;;;;;4.20;3.25;;;;;;;;;;5098091;28;20250;-68
2023/09/11 10:46:18;;;;;;;3.75;3.15;;;;;;;;;;5098052;28;20201;-67
2023/09/11 10:48:47;;;;;;;3.60;3.30;;;;;;;;;;5097969;28;20269;-67
2023/09/11 10:51:16;;;;;;;3.58;3.25;;;;;;;;;;5097973;28;20236;-68
2023/09/11 10:53:44;;;;;;;3.53;3.25;;;;;;;;;;5098062;28;20208;-69
2023/09/11 10:56:13;;;;;;;4.93;3.45;;;;;;;;;;5097375;28;20731;-69
2023/09/11 10:58:42;;;;;;;3.92;3.55;;;;;;;;;;5097391;28;20236;-65
2023/09/11 11:01:14;;;;;;;3.60;3.30;;;;;;;;;;5097969;28;20232;-68
2023/09/11 11:03:42;;;;;;;3.20;2.70;;;;;;;;;;5097380;28;20280;-67
2023/09/11 11:06:12;;;;;;;4.90;3.60;;;;;;;;;;5097477;28;20194;-67
2023/09/11 11:08:41;;;;;;;3.22;2.92;;;;;;;;;;5091388;28;20270;-68
2023/09/11 11:11:21;;;;;;;3.80;3.42;;;;;;;;;;5096914;28;20703;-68
2023/09/11 11:14:08;;;;;;;4.10;3.30;;;;;;;;;;5096216;28;20346;-67
2023/09/11 11:16:37;;;;;;;3.65;3.25;;;;;;;;;;5097447;28;20209;-68
2023/09/11 11:19:05;;;;;;;3.78;3.35;;;;;;;;;;5097873;28;20205;-67
2023/09/11 11:21:40;;;;;;;3.88;3.30;;;;;;;;;;5097553;28;20712;-68
2023/09/11 11:24:09;;;;;;;4.28;3.10;;;;;;;;;;5097338;28;20274;-69
2023/09/11 11:26:40;;;;;;;5.28;3.88;;;;;;;;;;5097622;28;20235;-68
2023/09/11 11:29:08;;;;;;;3.65;3.35;;;;;;;;;;5097751;28;20239;-68
2023/09/11 11:31:38;;;;;;;6.22;3.28;;;;;;;;;;5097705;28;20220;-67
2023/09/11 11:34:06;;;;;;;5.72;3.22;;;;;;;;;;5097699;28;20212;-70
2023/09/11 11:36:35;;;;;;;4.63;4.22;;;;;;;;;;5097766;28;20209;-67
2023/09/11 11:39:04;;;;;;;3.60;3.30;;;;;;;;;;5097548;28;20230;-68
2023/09/11 11:41:32;;;;;;;9.85;3.58;;;;;;;;;;5097329;28;20576;-68
2023/09/11 11:44:02;;;;;;;3.10;2.65;;;;;;;;;;5097157;28;20213;-68
2023/09/11 11:46:30;;;;;;;3.75;3.45;;;;;;;;;;5097750;28;20206;-69
2023/09/11 11:48:59;;;;;;;3.92;3.63;;;;;;;;;;5097494;28;20205;-69
2023/09/11 11:51:27;;;;;;;3.90;3.22;;;;;;;;;;5086276;28;20685;-69
2023/09/11 11:53:55;;;;;;;3.28;2.95;;;;;;;;;;5097271;28;20235;-69
2023/09/11 11:56:24;;;;;;;5.13;3.63;;;;;;;;;;5097440;28;20288;-69
2023/09/11 11:58:54;;;;;;;7.05;3.60;;;;;;;;;;5096913;28;20290;-69
2023/09/11 12:01:23;;;;;;;3.45;3.15;;;;;;;;;;5097206;28;20692;-67
2023/09/11 12:03:52;;;;;;;4.93;3.22;;;;;;;;;;5097567;28;20205;-68
2023/09/11 12:06:20;;;;;;;3.72;3.33;;;;;;;;;;5097433;28;20306;-68
2023/09/11 12:08:49;;;;;;;3.25;3.00;;;;;;;;;;5098346;28;20205;-69
2023/09/11 12:11:17;;;;;;;3.35;3.05;;;;;;;;;;5101137;28;20315;-68
2023/09/11 12:13:45;;;;;;;3.70;3.30;;;;;;;;;;5100982;28;20205;-68
2023/09/11 12:16:17;;;;;;;4.25;3.60;;;;;;;;;;5088254;28;20712;-68
2023/09/11 12:18:47;;;;;;;3.28;3.00;;;;;;;;;;5100713;28;20258;-69
2023/09/11 12:21:15;;;;;;;5.03;3.17;;;;;;;;;;5100751;28;20703;-67
2023/09/11 12:23:45;;;;;;;3.45;3.15;;;;;;;;;;5100822;28;20213;-70
2023/09/11 12:26:13;;;;;;;7.53;2.90;;;;;;;;;;5100766;28;20292;-68
2023/09/11 12:28:42;;;;;;;3.90;3.50;;;;;;;;;;5100309;28;20235;-68
2023/09/11 12:31:10;;;;;;;5.00;3.60;;;;;;;;;;5100624;28;20228;-68
2023/09/11 12:33:38;;;;;;;5.10;3.50;;;;;;;;;;5100879;28;20237;-69
2023/09/11 12:36:08;;;;;;;4.47;3.08;;;;;;;;;;5100781;28;20212;-68
2023/09/11 12:38:36;;;;;;;3.95;2.80;;;;;;;;;;5100322;28;20247;-67
2023/09/11 12:41:05;;;;;;;4.80;2.70;;;;;;;;;;5100260;28;20576;-69
2023/09/11 12:43:33;;;;;;;4.07;3.00;;;;;;;;;;5100005;28;20541;-68
2023/09/11 12:46:03;;;;;;;3.10;2.80;;;;;;;;;;5100313;28;20618;-68
2023/09/11 12:48:31;;;;;;;3.17;2.88;;;;;;;;;;5100482;28;20262;-68
2023/09/11 12:51:00;;;;;;;2.72;2.53;;;;;;;;;;5100397;28;20237;-68
2023/09/11 12:53:30;;;;;;;3.25;2.92;;;;;;;;;;5100098;28;20219;-69
2023/09/11 12:55:58;;;;;;;2.80;2.60;;;;;;;;;;5100187;28;20211;-69
2023/09/11 12:58:27;;;;;;;3.08;2.88;;;;;;;;;;5099766;28;20233;-69
2023/09/11 13:00:54;;;;;;;2.95;2.72;;;;;;;;;;5100245;28;20257;-69
2023/09/11 13:03:23;;;;;;;3.47;3.17;;;;;;;;;;5100005;28;20691;-69
2023/09/11 13:05:51;;;;;;;3.40;3.05;;;;;;;;;;5100246;28;20216;-69
2023/09/11 13:08:19;;;;;;;4.13;2.97;;;;;;;;;;5100108;28;20205;-68
2023/09/11 13:10:49;;;;;;;2.70;2.50;;;;;;;;;;5099683;28;20232;-68
2023/09/11 13:13:17;;;;;;;3.42;3.13;;;;;;;;;;5099854;28;20232;-69
2023/09/11 13:16:02;;;;;;;3.00;2.78;;;;;;;;;;5100030;28;20239;-68
2023/09/11 13:18:30;;;;;;;4.45;2.90;;;;;;;;;;5100035;28;20292;-67
2023/09/11 13:20:58;;;;;;;4.72;3.20;;;;;;;;;;5099123;28;20643;-68
2023/09/11 13:23:26;;;;;;;3.30;3.05;;;;;;;;;;5099867;28;20216;-68
2023/09/11 13:25:56;;;;;;;6.57;3.40;;;;;;;;;;5099532;28;20664;-68
2023/09/11 13:28:24;;;;;;;4.50;3.60;;;;;;;;;;5099319;28;20664;-69
2023/09/11 13:30:52;;;;;;;4.43;3.60;;;;;;;;;;5099512;28;20225;-69
2023/09/11 13:33:20;;;;;;;3.58;3.28;;;;;;;;;;5099510;28;20233;-68
2023/09/11 13:35:48;;;;;;;16.42;6.00;;;;;;;;;;5099291;28;20232;-68
2023/09/11 13:38:16;;;;;;;52.10;13.73;;;;;;;;;;5099275;28;20205;-68
2023/09/11 13:40:47;;;;;;;7.18;4.32;;;;;;;;;;5099326;28;20217;-68
2023/09/11 13:43:17;;;;;;;10.25;4.80;;;;;;;;;;5099009;28;20616;-68
2023/09/11 13:45:45;;;;;;;5.97;3.88;;;;;;;;;;5099191;28;20715;-68
2023/09/11 13:48:13;;;;;;;3.85;3.45;;;;;;;;;;5099011;28;20604;-68
2023/09/11 13:50:41;;;;;;;3.60;3.30;;;;;;;;;;5096496;28;20320;-69
2023/09/11 13:53:09;;;;;;;3.42;3.20;;;;;;;;;;5090826;28;20213;-69
2023/09/11 13:55:39;;;;;;;6.63;3.30;;;;;;;;;;5099277;28;20243;-69
2023/09/11 13:58:09;;;;;;;3.40;3.08;;;;;;;;;;5098545;28;20237;-68
2023/09/11 14:00:38;;;;;;;3.80;3.40;;;;;;;;;;5098855;28;20232;-68
2023/09/11 14:03:06;;;;;;;3.97;3.67;;;;;;;;;;5099092;28;20212;-69
2023/09/11 14:05:35;;;;;;;4.43;3.60;;;;;;;;;;5099028;28;20209;-69
2023/09/11 14:08:17;;;;;;;4.00;3.30;;;;;;;;;;5098908;28;20212;-69
2023/09/11 14:10:45;;;;;;;3.63;3.33;;;;;;;;;;5098897;28;20225;-68
2023/09/11 14:13:13;;;;;;;5.82;3.78;;;;;;;;;;5098632;28;20304;-68
2023/09/11 14:15:44;;;;;;;3.40;3.10;;;;;;;;;;5098958;28;20212;-68
2023/09/11 14:18:12;;;;;;;3.35;3.15;;;;;;;;;;5098560;28;20267;-68
2023/09/11 14:20:41;;;;;;;3.75;3.33;;;;;;;;;;5098627;28;20568;-68
2023/09/11 14:23:09;;;;;;;4.38;3.42;;;;;;;;;;5098627;28;20202;-68
2023/09/11 14:25:37;;;;;;;5.45;3.30;;;;;;;;;;5098537;28;20649;-69
2023/09/11 14:28:05;;;;;;;5.10;2.92;;;;;;;;;;5098150;28;20617;-68
2023/09/11 14:30:33;;;;;;;3.50;3.20;;;;;;;;;;5098100;28;20248;-68
2023/09/11 14:33:03;;;;;;;6.60;3.55;;;;;;;;;;5097790;28;20570;-68
2023/09/11 14:35:31;;;;;;;3.63;3.33;;;;;;;;;;5098153;28;20547;-69
2023/09/11 14:37:59;;;;;;;6.35;3.22;;;;;;;;;;5098229;28;20614;-68
2023/09/11 14:40:27;;;;;;;3.92;3.40;;;;;;;;;;5098103;28;20217;-68
2023/09/11 14:42:55;;;;;;;5.15;3.42;;;;;;;;;;5098224;28;20208;-67
2023/09/11 14:45:23;;;;;;;3.75;3.38;;;;;;;;;;5098335;28;20213;-69
2023/09/11 14:47:51;;;;;;;3.97;3.10;;;;;;;;;;5097783;28;20304;-69
2023/09/11 14:50:21;;;;;;;4.18;3.70;;;;;;;;;;5098152;28;20257;-67
2023/09/11 14:52:48;;;;;;;6.72;3.15;;;;;;;;;;5098029;28;20225;-68
2023/09/11 14:55:19;;;;;;;6.55;3.00;;;;;;;;;;5098008;28;20202;-70